sensor_id;sensor_type;location;lat;lon;timestamp;pressure;altitude;pressure_sealevel;temperature;humidity
163;BME280;3946;48.958;8.284;2023-06-22T00:02:23;100340.06;;;22.44;89.56
163;BME280;3946;48.958;8.284;2023-06-22T00:05:08;100332.69;;;22.40;89.82
163;BME280;3946;48.958;8.284;2023-06-22T00:07:54;100342.06;;;22.42;90.28
163;BME280;3946;48.958;8.284;2023-06-22T00:10:41;100355.09;;;22.44;90.00
163;BME280;3946;48.958;8.284;2023-06-22T00:13:27;100377.28;;;22.26;90.74
163;BME280;3946;48.958;8.284;2023-06-22T00:16:12;100462.53;;;22.43;91.09
163;BME280;3946;48.958;8.284;2023-06-22T00:18:57;100572.50;;;22.36;91.76
163;BME280;3946;48.958;8.284;2023-06-22T00:21:46;100647.75;;;22.24;94.75
163;BME280;3946;48.958;8.284;2023-06-22T00:24:37;100620.69;;;22.14;98.78
163;BME280;3946;48.958;8.284;2023-06-22T00:27:23;100502.06;;;22.12;100.00
163;BME280;3946;48.958;8.284;2023-06-22T00:30:10;100422.28;;;22.02;100.00
163;BME280;3946;48.958;8.284;2023-06-22T00:32:56;100378.09;;;21.80;100.00
163;BME280;3946;48.958;8.284;2023-06-22T00:35:41;100391.03;;;21.58;100.00
163;BME280;3946;48.958;8.284;2023-06-22T00:38:27;100425.00;;;21.37;100.00
163;BME280;3946;48.958;8.284;2023-06-22T00:41:12;100433.25;;;21.26;100.00
163;BME280;3946;48.958;8.284;2023-06-22T00:43:59;100429.06;;;21.15;100.00
163;BME280;3946;48.958;8.284;2023-06-22T00:46:44;100435.50;;;21.05;100.00
163;BME280;3946;48.958;8.284;2023-06-22T00:49:30;100437.44;;;20.86;100.00
163;BME280;3946;48.958;8.284;2023-06-22T00:52:15;100461.47;;;20.83;100.00
163;BME280;3946;48.958;8.284;2023-06-22T00:55:05;100473.81;;;20.75;100.00
163;BME280;3946;48.958;8.284;2023-06-22T00:57:51;100481.66;;;20.67;100.00
163;BME280;3946;48.958;8.284;2023-06-22T01:00:41;100477.53;;;20.64;100.00
163;BME280;3946;48.958;8.284;2023-06-22T01:03:26;100477.47;;;20.48;100.00
163;BME280;3946;48.958;8.284;2023-06-22T01:06:15;100488.84;;;20.48;100.00
163;BME280;3946;48.958;8.284;2023-06-22T01:09:11;100478.59;;;20.37;100.00
163;BME280;3946;48.958;8.284;2023-06-22T01:12:02;100470.53;;;20.39;100.00
163;BME280;3946;48.958;8.284;2023-06-22T01:14:55;100468.06;;;20.37;100.00
163;BME280;3946;48.958;8.284;2023-06-22T01:17:45;100468.88;;;20.38;100.00
163;BME280;3946;48.958;8.284;2023-06-22T01:20:34;100481.63;;;20.24;100.00
163;BME280;3946;48.958;8.284;2023-06-22T01:23:29;100488.03;;;20.22;100.00
163;BME280;3946;48.958;8.284;2023-06-22T01:26:22;100493.97;;;20.24;100.00
163;BME280;3946;48.958;8.284;2023-06-22T01:29:13;100493.81;;;20.25;100.00
163;BME280;3946;48.958;8.284;2023-06-22T01:32:02;100494.81;;;20.33;100.00
163;BME280;3946;48.958;8.284;2023-06-22T01:34:48;100504.38;;;20.34;100.00
163;BME280;3946;48.958;8.284;2023-06-22T01:37:35;100500.91;;;20.33;100.00
163;BME280;3946;48.958;8.284;2023-06-22T01:40:22;100501.72;;;20.34;100.00
163;BME280;3946;48.958;8.284;2023-06-22T01:43:09;100498.88;;;20.45;100.00
163;BME280;3946;48.958;8.284;2023-06-22T01:45:58;100479.28;;;20.47;100.00
163;BME280;3946;48.958;8.284;2023-06-22T01:48:43;100475.19;;;20.45;100.00
163;BME280;3946;48.958;8.284;2023-06-22T01:51:29;100476.66;;;20.47;100.00
163;BME280;3946;48.958;8.284;2023-06-22T01:54:17;100485.78;;;20.35;100.00
163;BME280;3946;48.958;8.284;2023-06-22T01:57:04;100491.50;;;20.31;100.00
163;BME280;3946;48.958;8.284;2023-06-22T01:59:55;100487.22;;;20.30;100.00
163;BME280;3946;48.958;8.284;2023-06-22T02:02:49;100483.91;;;20.19;100.00
163;BME280;3946;48.958;8.284;2023-06-22T02:05:41;100492.16;;;20.24;100.00
163;BME280;3946;48.958;8.284;2023-06-22T02:08:32;100489.00;;;20.21;100.00
163;BME280;3946;48.958;8.284;2023-06-22T02:11:20;100495.03;;;20.13;100.00
163;BME280;3946;48.958;8.284;2023-06-22T02:14:10;100490.44;;;20.15;100.00
163;BME280;3946;48.958;8.284;2023-06-22T02:16:56;100488.78;;;20.14;100.00
163;BME280;3946;48.958;8.284;2023-06-22T02:19:44;100486.00;;;20.16;100.00
163;BME280;3946;48.958;8.284;2023-06-22T02:22:30;100479.09;;;20.15;100.00
163;BME280;3946;48.958;8.284;2023-06-22T02:25:15;100480.91;;;20.14;100.00
163;BME280;3946;48.958;8.284;2023-06-22T02:28:04;100486.13;;;20.06;100.00
163;BME280;3946;48.958;8.284;2023-06-22T02:30:49;100494.31;;;20.03;100.00
163;BME280;3946;48.958;8.284;2023-06-22T02:33:36;100491.53;;;20.05;100.00
163;BME280;3946;48.958;8.284;2023-06-22T02:36:23;100474.16;;;20.12;100.00
163;BME280;3946;48.958;8.284;2023-06-22T02:39:08;100462.81;;;20.11;100.00
163;BME280;3946;48.958;8.284;2023-06-22T02:41:54;100459.16;;;20.04;100.00
163;BME280;3946;48.958;8.284;2023-06-22T02:44:40;100453.88;;;20.04;100.00
163;BME280;3946;48.958;8.284;2023-06-22T02:47:26;100459.53;;;20.09;100.00
163;BME280;3946;48.958;8.284;2023-06-22T02:50:12;100453.13;;;20.12;100.00
163;BME280;3946;48.958;8.284;2023-06-22T02:52:58;100441.09;;;20.09;100.00
163;BME280;3946;48.958;8.284;2023-06-22T02:55:46;100432.22;;;20.10;100.00
163;BME280;3946;48.958;8.284;2023-06-22T02:58:32;100430.56;;;20.09;100.00
163;BME280;3946;48.958;8.284;2023-06-22T03:01:25;100417.88;;;20.05;100.00
163;BME280;3946;48.958;8.284;2023-06-22T03:04:12;100415.72;;;20.00;100.00
163;BME280;3946;48.958;8.284;2023-06-22T03:06:59;100434.44;;;19.97;100.00
163;BME280;3946;48.958;8.284;2023-06-22T03:09:48;100430.34;;;19.95;100.00
163;BME280;3946;48.958;8.284;2023-06-22T03:12:37;100435.09;;;19.99;100.00
163;BME280;3946;48.958;8.284;2023-06-22T03:15:22;100435.59;;;19.95;100.00
163;BME280;3946;48.958;8.284;2023-06-22T03:18:09;100435.75;;;19.93;100.00
163;BME280;3946;48.958;8.284;2023-06-22T03:20:54;100432.59;;;19.89;100.00
163;BME280;3946;48.958;8.284;2023-06-22T03:23:40;100436.56;;;19.94;100.00
163;BME280;3946;48.958;8.284;2023-06-22T03:26:26;100425.53;;;19.90;100.00
163;BME280;3946;48.958;8.284;2023-06-22T03:29:12;100432.75;;;19.88;100.00
163;BME280;3946;48.958;8.284;2023-06-22T03:31:57;100427.50;;;19.88;100.00
163;BME280;3946;48.958;8.284;2023-06-22T03:34:42;100421.63;;;19.94;100.00
163;BME280;3946;48.958;8.284;2023-06-22T03:37:32;100420.44;;;19.88;100.00
163;BME280;3946;48.958;8.284;2023-06-22T03:40:17;100417.28;;;19.85;100.00
163;BME280;3946;48.958;8.284;2023-06-22T03:43:04;100418.56;;;19.81;100.00
163;BME280;3946;48.958;8.284;2023-06-22T03:45:49;100414.66;;;19.85;100.00
163;BME280;3946;48.958;8.284;2023-06-22T03:48:35;100400.16;;;19.81;100.00
163;BME280;3946;48.958;8.284;2023-06-22T03:51:21;100403.16;;;19.86;100.00
163;BME280;3946;48.958;8.284;2023-06-22T03:54:06;100416.50;;;19.92;100.00
163;BME280;3946;48.958;8.284;2023-06-22T03:56:52;100413.06;;;19.92;100.00
163;BME280;3946;48.958;8.284;2023-06-22T03:59:38;100403.78;;;19.80;100.00
163;BME280;3946;48.958;8.284;2023-06-22T04:02:24;100396.72;;;19.80;100.00
163;BME280;3946;48.958;8.284;2023-06-22T04:05:09;100409.78;;;19.98;100.00
163;BME280;3946;48.958;8.284;2023-06-22T04:07:54;100389.41;;;20.00;100.00
163;BME280;3946;48.958;8.284;2023-06-22T04:10:40;100379.59;;;20.10;100.00
163;BME280;3946;48.958;8.284;2023-06-22T04:13:25;100374.69;;;20.15;100.00
163;BME280;3946;48.958;8.284;2023-06-22T04:16:12;100369.00;;;20.28;100.00
163;BME280;3946;48.958;8.284;2023-06-22T04:18:58;100372.94;;;20.32;100.00
163;BME280;3946;48.958;8.284;2023-06-22T04:21:43;100368.09;;;20.45;100.00
163;BME280;3946;48.958;8.284;2023-06-22T04:24:28;100363.34;;;20.57;100.00
163;BME280;3946;48.958;8.284;2023-06-22T04:27:13;100341.78;;;20.62;100.00
163;BME280;3946;48.958;8.284;2023-06-22T04:29:59;100341.13;;;20.68;100.00
163;BME280;3946;48.958;8.284;2023-06-22T04:32:46;100341.63;;;20.79;100.00
163;BME280;3946;48.958;8.284;2023-06-22T04:35:40;100321.53;;;21.03;100.00
163;BME280;3946;48.958;8.284;2023-06-22T04:38:26;100316.78;;;21.22;100.00
163;BME280;3946;48.958;8.284;2023-06-22T04:41:11;100312.78;;;21.18;100.00
163;BME280;3946;48.958;8.284;2023-06-22T04:44:08;100311.19;;;21.09;100.00
163;BME280;3946;48.958;8.284;2023-06-22T04:46:55;100320.03;;;21.16;100.00
163;BME280;3946;48.958;8.284;2023-06-22T04:49:45;100303.91;;;21.27;100.00
163;BME280;3946;48.958;8.284;2023-06-22T04:52:36;100297.44;;;21.46;100.00
163;BME280;3946;48.958;8.284;2023-06-22T04:55:21;100274.69;;;21.53;100.00
163;BME280;3946;48.958;8.284;2023-06-22T04:58:07;100288.47;;;21.63;100.00
163;BME280;3946;48.958;8.284;2023-06-22T05:00:53;100296.00;;;22.22;100.00
163;BME280;3946;48.958;8.284;2023-06-22T05:03:43;100288.94;;;22.60;100.00
163;BME280;3946;48.958;8.284;2023-06-22T05:06:32;100283.53;;;22.76;100.00
163;BME280;3946;48.958;8.284;2023-06-22T05:09:18;100276.34;;;22.70;100.00
163;BME280;3946;48.958;8.284;2023-06-22T05:12:03;100274.28;;;22.80;99.72
163;BME280;3946;48.958;8.284;2023-06-22T05:14:49;100258.19;;;22.67;99.81
163;BME280;3946;48.958;8.284;2023-06-22T05:17:34;100270.16;;;23.00;97.92
163;BME280;3946;48.958;8.284;2023-06-22T05:20:19;100268.16;;;23.02;97.63
163;BME280;3946;48.958;8.284;2023-06-22T05:23:07;100260.56;;;22.85;97.70
163;BME280;3946;48.958;8.284;2023-06-22T05:25:52;100266.72;;;22.77;99.08
163;BME280;3946;48.958;8.284;2023-06-22T05:28:38;100255.81;;;22.80;98.71
163;BME280;3946;48.958;8.284;2023-06-22T05:31:24;100248.00;;;23.16;96.05
163;BME280;3946;48.958;8.284;2023-06-22T05:34:09;100252.00;;;23.12;96.15
163;BME280;3946;48.958;8.284;2023-06-22T05:36:54;100247.00;;;23.32;94.73
163;BME280;3946;48.958;8.284;2023-06-22T05:40:00;100226.84;;;22.87;94.77
163;BME280;3946;48.958;8.284;2023-06-22T05:42:54;100236.03;;;22.91;95.46
163;BME280;3946;48.958;8.284;2023-06-22T05:45:46;100249.66;;;23.32;94.87
163;BME280;3946;48.958;8.284;2023-06-22T05:48:32;100250.66;;;23.31;93.21
163;BME280;3946;48.958;8.284;2023-06-22T05:51:17;100251.47;;;23.31;93.14
163;BME280;3946;48.958;8.284;2023-06-22T05:54:03;100242.84;;;23.52;93.23
163;BME280;3946;48.958;8.284;2023-06-22T05:56:50;100251.91;;;23.06;94.00
163;BME280;3946;48.958;8.284;2023-06-22T05:59:35;100256.59;;;23.03;94.73
163;BME280;3946;48.958;8.284;2023-06-22T06:02:21;100255.38;;;22.68;97.19
163;BME280;3946;48.958;8.284;2023-06-22T06:05:06;100261.13;;;23.10;95.72
163;BME280;3946;48.958;8.284;2023-06-22T06:07:52;100259.09;;;22.82;96.91
163;BME280;3946;48.958;8.284;2023-06-22T06:10:37;100252.13;;;23.04;96.79
163;BME280;3946;48.958;8.284;2023-06-22T06:13:24;100244.13;;;22.89;96.97
163;BME280;3946;48.958;8.284;2023-06-22T06:16:09;100244.44;;;23.09;96.63
163;BME280;3946;48.958;8.284;2023-06-22T06:18:55;100229.22;;;23.11;96.81
163;BME280;3946;48.958;8.284;2023-06-22T06:21:42;100234.41;;;23.49;95.23
163;BME280;3946;48.958;8.284;2023-06-22T06:24:27;100239.63;;;23.42;95.21
163;BME280;3946;48.958;8.284;2023-06-22T06:27:12;100238.97;;;23.40;95.49
163;BME280;3946;48.958;8.284;2023-06-22T06:29:59;100237.38;;;23.54;93.96
163;BME280;3946;48.958;8.284;2023-06-22T06:32:45;100237.59;;;23.73;94.63
163;BME280;3946;48.958;8.284;2023-06-22T06:35:30;100239.00;;;23.55;93.61
163;BME280;3946;48.958;8.284;2023-06-22T06:38:16;100232.94;;;23.76;93.46
163;BME280;3946;48.958;8.284;2023-06-22T06:41:01;100231.03;;;23.84;92.35
163;BME280;3946;48.958;8.284;2023-06-22T06:43:46;100224.91;;;23.84;92.61
163;BME280;3946;48.958;8.284;2023-06-22T06:46:33;100224.94;;;23.69;92.12
163;BME280;3946;48.958;8.284;2023-06-22T06:49:18;100227.09;;;23.80;92.80
163;BME280;3946;48.958;8.284;2023-06-22T06:52:04;100218.97;;;24.03;92.55
163;BME280;3946;48.958;8.284;2023-06-22T06:54:50;100208.72;;;24.15;91.42
163;BME280;3946;48.958;8.284;2023-06-22T06:57:36;100215.28;;;24.19;91.42
163;BME280;3946;48.958;8.284;2023-06-22T07:00:22;100209.72;;;24.56;90.28
163;BME280;3946;48.958;8.284;2023-06-22T07:03:09;100201.91;;;24.97;87.60
163;BME280;3946;48.958;8.284;2023-06-22T07:05:54;100197.00;;;25.01;87.04
163;BME280;3946;48.958;8.284;2023-06-22T07:08:39;100205.47;;;25.18;86.34
163;BME280;3946;48.958;8.284;2023-06-22T07:11:25;100201.47;;;25.35;85.58
163;BME280;3946;48.958;8.284;2023-06-22T07:14:10;100189.22;;;25.34;84.33
163;BME280;3946;48.958;8.284;2023-06-22T07:16:55;100191.78;;;25.55;83.89
163;BME280;3946;48.958;8.284;2023-06-22T07:19:42;100190.81;;;25.69;82.77
163;BME280;3946;48.958;8.284;2023-06-22T07:22:27;100188.66;;;25.99;81.81
163;BME280;3946;48.958;8.284;2023-06-22T07:25:13;100173.78;;;26.25;80.31
163;BME280;3946;48.958;8.284;2023-06-22T07:28:00;100170.47;;;26.03;79.29
163;BME280;3946;48.958;8.284;2023-06-22T07:30:46;100189.41;;;25.73;81.09
163;BME280;3946;48.958;8.284;2023-06-22T07:33:31;100185.63;;;26.09;80.73
163;BME280;3946;48.958;8.284;2023-06-22T07:36:18;100166.25;;;26.41;79.11
163;BME280;3946;48.958;8.284;2023-06-22T07:39:03;100173.97;;;26.76;77.29
163;BME280;3946;48.958;8.284;2023-06-22T07:41:48;100163.50;;;27.07;75.81
163;BME280;3946;48.958;8.284;2023-06-22T07:44:34;100172.75;;;26.72;77.13
163;BME280;3946;48.958;8.284;2023-06-22T07:47:19;100168.88;;;26.68;75.99
163;BME280;3946;48.958;8.284;2023-06-22T07:50:08;100177.63;;;27.08;76.11
163;BME280;3946;48.958;8.284;2023-06-22T07:52:55;100164.06;;;27.16;73.00
163;BME280;3946;48.958;8.284;2023-06-22T07:55:40;100188.56;;;27.38;75.26
163;BME280;3946;48.958;8.284;2023-06-22T07:58:25;100190.47;;;27.75;73.47
163;BME280;3946;48.958;8.284;2023-06-22T08:01:10;100196.34;;;27.84;73.92
163;BME280;3946;48.958;8.284;2023-06-22T08:03:55;100182.06;;;27.27;74.23
163;BME280;3946;48.958;8.284;2023-06-22T08:06:40;100187.00;;;27.75;74.65
163;BME280;3946;48.958;8.284;2023-06-22T08:09:31;100185.28;;;27.87;72.27
163;BME280;3946;48.958;8.284;2023-06-22T08:12:16;100174.63;;;28.12;70.39
163;BME280;3946;48.958;8.284;2023-06-22T08:15:01;100174.78;;;28.48;70.17
163;BME280;3946;48.958;8.284;2023-06-22T08:17:46;100203.47;;;28.53;70.62
163;BME280;3946;48.958;8.284;2023-06-22T08:20:31;100189.31;;;28.52;66.87
163;BME280;3946;48.958;8.284;2023-06-22T08:23:17;100180.28;;;28.53;65.43
163;BME280;3946;48.958;8.284;2023-06-22T08:26:04;100202.84;;;29.01;65.24
163;BME280;3946;48.958;8.284;2023-06-22T08:28:48;100183.53;;;28.80;63.69
163;BME280;3946;48.958;8.284;2023-06-22T08:31:33;100211.84;;;28.81;64.75
163;BME280;3946;48.958;8.284;2023-06-22T08:34:18;100176.09;;;29.55;62.63
163;BME280;3946;48.958;8.284;2023-06-22T08:37:05;100168.19;;;29.31;62.10
163;BME280;3946;48.958;8.284;2023-06-22T08:39:50;100150.53;;;29.78;61.53
163;BME280;3946;48.958;8.284;2023-06-22T08:42:36;100142.69;;;29.53;61.00
163;BME280;3946;48.958;8.284;2023-06-22T08:45:22;100133.63;;;29.96;61.26
163;BME280;3946;48.958;8.284;2023-06-22T08:48:06;100113.91;;;30.20;60.25
163;BME280;3946;48.958;8.284;2023-06-22T08:50:51;100135.41;;;30.02;60.80
163;BME280;3946;48.958;8.284;2023-06-22T08:53:36;100150.66;;;30.24;61.03
163;BME280;3946;48.958;8.284;2023-06-22T08:56:21;100139.59;;;30.09;59.37
163;BME280;3946;48.958;8.284;2023-06-22T08:59:07;100151.22;;;30.15;60.33
163;BME280;3946;48.958;8.284;2023-06-22T09:01:52;100189.72;;;29.84;63.44
163;BME280;3946;48.958;8.284;2023-06-22T09:04:37;100181.09;;;29.15;65.87
163;BME280;3946;48.958;8.284;2023-06-22T09:07:22;100179.63;;;29.38;66.61
163;BME280;3946;48.958;8.284;2023-06-22T09:10:08;100175.81;;;29.27;65.12
163;BME280;3946;48.958;8.284;2023-06-22T09:12:54;100176.34;;;29.84;65.46
163;BME280;3946;48.958;8.284;2023-06-22T09:15:40;100170.53;;;30.40;63.10
163;BME280;3946;48.958;8.284;2023-06-22T09:18:25;100147.91;;;30.66;61.84
163;BME280;3946;48.958;8.284;2023-06-22T09:21:10;100154.00;;;30.08;63.73
163;BME280;3946;48.958;8.284;2023-06-22T09:23:55;100150.06;;;30.22;64.07
163;BME280;3946;48.958;8.284;2023-06-22T09:26:41;100129.16;;;30.19;61.91
163;BME280;3946;48.958;8.284;2023-06-22T09:29:25;100136.38;;;30.19;63.20
163;BME280;3946;48.958;8.284;2023-06-22T09:32:12;100132.88;;;29.88;63.73
163;BME280;3946;48.958;8.284;2023-06-22T09:34:57;100131.81;;;29.66;64.05
163;BME280;3946;48.958;8.284;2023-06-22T09:37:42;100094.28;;;29.61;63.86
163;BME280;3946;48.958;8.284;2023-06-22T09:40:27;100088.13;;;29.61;63.98
163;BME280;3946;48.958;8.284;2023-06-22T09:43:12;100088.38;;;29.71;63.58
163;BME280;3946;48.958;8.284;2023-06-22T09:45:57;100076.75;;;29.77;62.70
163;BME280;3946;48.958;8.284;2023-06-22T09:48:43;100083.97;;;29.76;63.88
163;BME280;3946;48.958;8.284;2023-06-22T09:51:28;100083.66;;;29.84;63.62
163;BME280;3946;48.958;8.284;2023-06-22T09:54:13;100075.81;;;29.71;63.66
163;BME280;3946;48.958;8.284;2023-06-22T09:56:58;100073.09;;;29.18;65.86
163;BME280;3946;48.958;8.284;2023-06-22T09:59:43;100079.63;;;29.22;66.29
163;BME280;3946;48.958;8.284;2023-06-22T10:02:28;100085.72;;;29.22;67.37
163;BME280;3946;48.958;8.284;2023-06-22T10:05:14;100100.53;;;29.07;68.11
163;BME280;3946;48.958;8.284;2023-06-22T10:07:59;100088.41;;;29.22;66.92
163;BME280;3946;48.958;8.284;2023-06-22T10:10:44;100099.72;;;29.54;65.07
163;BME280;3946;48.958;8.284;2023-06-22T10:13:29;100090.03;;;29.83;64.84
163;BME280;3946;48.958;8.284;2023-06-22T10:16:14;100087.97;;;29.25;64.45
163;BME280;3946;48.958;8.284;2023-06-22T10:18:59;100085.22;;;29.32;64.86
163;BME280;3946;48.958;8.284;2023-06-22T10:21:45;100092.22;;;29.15;64.81
163;BME280;3946;48.958;8.284;2023-06-22T10:24:30;100082.69;;;29.37;65.82
163;BME280;3946;48.958;8.284;2023-06-22T10:27:15;100094.19;;;29.38;66.20
163;BME280;3946;48.958;8.284;2023-06-22T10:30:00;100088.91;;;29.49;65.84
163;BME280;3946;48.958;8.284;2023-06-22T10:32:45;100061.97;;;29.51;63.82
163;BME280;3946;48.958;8.284;2023-06-22T10:35:30;100060.72;;;29.53;64.23
163;BME280;3946;48.958;8.284;2023-06-22T10:38:16;100065.34;;;29.58;64.12
163;BME280;3946;48.958;8.284;2023-06-22T10:41:01;100060.34;;;30.03;64.82
163;BME280;3946;48.958;8.284;2023-06-22T10:43:47;100035.31;;;30.21;63.23
163;BME280;3946;48.958;8.284;2023-06-22T10:46:32;100034.41;;;30.04;62.84
163;BME280;3946;48.958;8.284;2023-06-22T10:49:17;100038.00;;;30.44;63.05
163;BME280;3946;48.958;8.284;2023-06-22T10:52:02;100041.31;;;30.75;62.11
163;BME280;3946;48.958;8.284;2023-06-22T10:54:48;100007.97;;;30.94;59.75
163;BME280;3946;48.958;8.284;2023-06-22T10:57:33;99990.53;;;31.37;58.72
163;BME280;3946;48.958;8.284;2023-06-22T11:00:18;100010.44;;;31.57;57.92
163;BME280;3946;48.958;8.284;2023-06-22T11:03:03;99985.88;;;32.16;56.70
163;BME280;3946;48.958;8.284;2023-06-22T11:05:48;99971.28;;;32.45;54.62
163;BME280;3946;48.958;8.284;2023-06-22T11:08:33;99977.53;;;32.12;54.56
163;BME280;3946;48.958;8.284;2023-06-22T11:11:19;99977.25;;;32.30;54.37
163;BME280;3946;48.958;8.284;2023-06-22T11:14:04;99988.22;;;32.29;54.72
163;BME280;3946;48.958;8.284;2023-06-22T11:16:49;99975.50;;;32.19;53.97
163;BME280;3946;48.958;8.284;2023-06-22T11:19:34;99970.75;;;31.71;53.60
163;BME280;3946;48.958;8.284;2023-06-22T11:22:20;99979.44;;;31.95;54.87
163;BME280;3946;48.958;8.284;2023-06-22T11:25:05;99939.22;;;32.17;52.73
163;BME280;3946;48.958;8.284;2023-06-22T11:27:52;99986.78;;;32.21;54.73
163;BME280;3946;48.958;8.284;2023-06-22T11:30:37;99995.41;;;32.07;54.83
163;BME280;3946;48.958;8.284;2023-06-22T11:33:22;99978.38;;;32.18;55.11
163;BME280;3946;48.958;8.284;2023-06-22T11:36:07;99969.66;;;32.44;53.81
163;BME280;3946;48.958;8.284;2023-06-22T11:38:52;99944.44;;;32.72;52.84
163;BME280;3946;48.958;8.284;2023-06-22T11:41:37;99969.44;;;32.73;53.04
163;BME280;3946;48.958;8.284;2023-06-22T11:44:24;100002.25;;;32.36;54.58
163;BME280;3946;48.958;8.284;2023-06-22T11:47:09;100012.50;;;32.39;55.20
163;BME280;3946;48.958;8.284;2023-06-22T11:49:54;99962.31;;;32.83;52.31
163;BME280;3946;48.958;8.284;2023-06-22T11:52:39;99968.69;;;33.31;51.33
163;BME280;3946;48.958;8.284;2023-06-22T11:55:24;99963.41;;;33.14;51.53
163;BME280;3946;48.958;8.284;2023-06-22T12:01:16;99952.34;;;33.38;51.08
163;BME280;3946;48.958;8.284;2023-06-22T12:04:01;99943.56;;;33.84;50.01
163;BME280;3946;48.958;8.284;2023-06-22T12:06:49;100057.69;;;32.91;55.61
163;BME280;3946;48.958;8.284;2023-06-22T12:09:34;100036.22;;;32.91;55.72
163;BME280;3946;48.958;8.284;2023-06-22T12:12:19;100001.56;;;32.89;53.71
163;BME280;3946;48.958;8.284;2023-06-22T12:15:04;99982.81;;;33.21;52.65
163;BME280;3946;48.958;8.284;2023-06-22T12:17:50;99974.69;;;33.16;52.20
163;BME280;3946;48.958;8.284;2023-06-22T12:20:37;99963.06;;;33.32;51.84
163;BME280;3946;48.958;8.284;2023-06-22T12:23:22;100053.69;;;32.72;56.08
163;BME280;3946;48.958;8.284;2023-06-22T12:26:07;100025.28;;;32.54;54.96
163;BME280;3946;48.958;8.284;2023-06-22T12:28:52;100040.00;;;32.29;55.74
163;BME280;3946;48.958;8.284;2023-06-22T12:31:37;100065.84;;;32.02;57.07
163;BME280;3946;48.958;8.284;2023-06-22T12:34:24;100066.88;;;32.18;57.52
163;BME280;3946;48.958;8.284;2023-06-22T12:37:09;100080.97;;;31.91;58.26
163;BME280;3946;48.958;8.284;2023-06-22T12:39:54;100070.09;;;31.81;58.92
163;BME280;3946;48.958;8.284;2023-06-22T12:42:39;100076.31;;;32.04;59.40
163;BME280;3946;48.958;8.284;2023-06-22T12:45:25;100035.50;;;31.80;57.80
163;BME280;3946;48.958;8.284;2023-06-22T12:48:12;100046.59;;;32.05;57.78
163;BME280;3946;48.958;8.284;2023-06-22T12:50:58;100068.94;;;32.27;59.57
163;BME280;3946;48.958;8.284;2023-06-22T12:53:43;100015.25;;;32.44;55.46
163;BME280;3946;48.958;8.284;2023-06-22T12:56:28;100063.09;;;31.97;58.67
163;BME280;3946;48.958;8.284;2023-06-22T12:59:13;100042.47;;;31.97;57.09
163;BME280;3946;48.958;8.284;2023-06-22T13:01:58;100046.94;;;31.92;58.23
163;BME280;3946;48.958;8.284;2023-06-22T13:04:43;100054.06;;;32.20;58.42
163;BME280;3946;48.958;8.284;2023-06-22T13:07:29;100040.50;;;32.48;58.43
163;BME280;3946;48.958;8.284;2023-06-22T13:10:14;100035.66;;;32.45;57.63
163;BME280;3946;48.958;8.284;2023-06-22T13:12:59;100015.31;;;33.20;56.01
163;BME280;3946;48.958;8.284;2023-06-22T13:15:44;99998.56;;;32.86;53.77
163;BME280;3946;48.958;8.284;2023-06-22T13:18:29;100027.66;;;32.50;56.13
163;BME280;3946;48.958;8.284;2023-06-22T13:21:14;100031.06;;;32.24;56.01
163;BME280;3946;48.958;8.284;2023-06-22T13:24:00;100012.72;;;31.99;55.66
163;BME280;3946;48.958;8.284;2023-06-22T13:26:45;100016.97;;;31.95;56.88
163;BME280;3946;48.958;8.284;2023-06-22T13:29:30;99991.78;;;32.18;55.26
163;BME280;3946;48.958;8.284;2023-06-22T13:32:15;100009.75;;;32.34;56.87
163;BME280;3946;48.958;8.284;2023-06-22T13:35:00;99979.44;;;32.77;54.59
163;BME280;3946;48.958;8.284;2023-06-22T13:37:45;99948.13;;;32.39;52.85
163;BME280;3946;48.958;8.284;2023-06-22T13:40:31;99981.72;;;32.68;54.08
163;BME280;3946;48.958;8.284;2023-06-22T13:43:16;100003.91;;;33.08;54.40
163;BME280;3946;48.958;8.284;2023-06-22T13:46:02;99982.56;;;33.23;53.64
163;BME280;3946;48.958;8.284;2023-06-22T13:48:46;99962.34;;;33.15;53.15
163;BME280;3946;48.958;8.284;2023-06-22T13:51:31;99988.72;;;32.26;55.68
163;BME280;3946;48.958;8.284;2023-06-22T13:54:16;100007.63;;;31.64;56.50
163;BME280;3946;48.958;8.284;2023-06-22T13:57:03;100049.28;;;30.98;57.70
163;BME280;3946;48.958;8.284;2023-06-22T13:59:48;100048.91;;;30.43;59.60
163;BME280;3946;48.958;8.284;2023-06-22T14:02:33;100041.50;;;29.98;61.57
163;BME280;3946;48.958;8.284;2023-06-22T14:05:18;100043.81;;;30.06;63.80
163;BME280;3946;48.958;8.284;2023-06-22T14:08:03;100039.22;;;29.48;65.60
163;BME280;3946;48.958;8.284;2023-06-22T14:10:49;100041.75;;;29.43;64.32
163;BME280;3946;48.958;8.284;2023-06-22T14:13:35;100061.72;;;29.22;64.77
163;BME280;3946;48.958;8.284;2023-06-22T14:16:20;100065.41;;;28.92;65.47
163;BME280;3946;48.958;8.284;2023-06-22T14:19:05;100058.91;;;28.87;65.14
163;BME280;3946;48.958;8.284;2023-06-22T14:21:50;100029.59;;;28.99;64.08
163;BME280;3946;48.958;8.284;2023-06-22T14:24:35;100016.63;;;29.03;66.72
163;BME280;3946;48.958;8.284;2023-06-22T14:27:20;100014.38;;;28.88;67.96
163;BME280;3946;48.958;8.284;2023-06-22T14:30:07;100020.53;;;28.88;70.39
163;BME280;3946;48.958;8.284;2023-06-22T14:32:52;99998.00;;;28.84;70.59
163;BME280;3946;48.958;8.284;2023-06-22T14:35:37;100006.34;;;29.48;71.83
163;BME280;3946;48.958;8.284;2023-06-22T14:38:22;99992.66;;;29.56;69.28
163;BME280;3946;48.958;8.284;2023-06-22T14:41:07;99995.59;;;29.66;70.41
163;BME280;3946;48.958;8.284;2023-06-22T14:43:52;99999.53;;;29.75;70.79
163;BME280;3946;48.958;8.284;2023-06-22T14:46:38;99970.56;;;30.42;66.60
163;BME280;3946;48.958;8.284;2023-06-22T14:49:23;99957.19;;;30.82;65.53
163;BME280;3946;48.958;8.284;2023-06-22T14:52:08;99941.47;;;31.31;64.07
163;BME280;3946;48.958;8.284;2023-06-22T14:54:53;99932.78;;;31.24;64.45
163;BME280;3946;48.958;8.284;2023-06-22T14:57:38;99932.50;;;31.09;64.79
163;BME280;3946;48.958;8.284;2023-06-22T15:00:23;99943.81;;;31.11;65.33
163;BME280;3946;48.958;8.284;2023-06-22T15:03:09;99931.97;;;31.23;64.04
163;BME280;3946;48.958;8.284;2023-06-22T15:06:01;99943.47;;;31.24;64.98